Aviation Digital Data Service (ADDS)

Output produced by METARs form (1233 UTC 07 October 2022)
found at http://www.aviationweather.gov/metar/data/
 
LHBP 071230Z 07006KT 020V100 CAVOK 21/12 Q1026 NOSIG
LHBP 071200Z 10006KT 060V150 CAVOK 21/12 Q1027 NOSIG
LHBP 071130Z 09006KT 060V120 CAVOK 21/12 Q1027 NOSIG
LHBP 071100Z 12005KT 080V170 CAVOK 20/12 Q1027 NOSIG
LHBP 071030Z 12007KT 080V150 CAVOK 20/12 Q1028 NOSIG
LHBP 071000Z 10007KT 060V140 CAVOK 20/12 Q1028 NOSIG
TAF LHBP 071115Z 0712/0812 09006KT CAVOK 
     BECMG 0723/0802 4000 BCFG BR 
     TEMPO 0802/0808 VRB02KT 0300 FG VV001 
     BECMG 0808/0810 16005KT CAVOK
       
LHDC 071215Z AUTO VRB03KT CAVOK 21/11 Q1027 NOSIG
LHDC 071145Z AUTO VRB03KT CAVOK 20/10 Q1027 NOSIG
LHDC 071115Z AUTO VRB02KT CAVOK 21/12 Q1028 NOSIG
LHDC 071045Z AUTO VRB02KT CAVOK 20/12 Q1028 NOSIG
LHDC 071015Z AUTO 09003KT 020V140 CAVOK 19/12 Q1028 NOSIG
LHDC 070945Z AUTO 11005KT 050V140 CAVOK 18/11 Q1029 NOSIG
TAF LHDC 071115Z 0712/0721 07005KT CAVOK 
     BECMG 0713/0716 13006KT 
     BECMG 0718/0721 5000 BR MIFG
       
LHKE 071215Z 08004KT CAVOK 20/11 Q1026 NOSIG RMK BLU
LHKE 071145Z 08004KT CAVOK 20/11 Q1027 NOSIG RMK BLU
LHKE 071115Z 05002KT CAVOK 20/12 Q1027 NOSIG RMK BLU
LHKE 071045Z 09004KT CAVOK 19/11 Q1027 NOSIG RMK BLU
LHKE 071015Z 05004KT CAVOK 18/12 Q1028 NOSIG RMK BLU
LHKE 070945Z 09004KT CAVOK 18/11 Q1028 NOSIG RMK BLU
TAF LHKE 071115Z 0712/0721 08004KT CAVOK 
     BECMG 0713/0715 VRB03KT 
     BECMG 0718/0721 14004KT
       
LHPA 071215Z 15006KT 120V190 CAVOK 21/12 Q1026 NOSIG RMK BLU
LHPA 071145Z 17006KT 120V220 CAVOK 21/12 Q1026 NOSIG RMK BLU
LHPA 071115Z 17006KT 130V210 CAVOK 21/12 Q1027 NOSIG RMK BLU
LHPA 071045Z 17008KT 140V210 CAVOK 21/12 Q1027 NOSIG RMK BLU
LHPA 071015Z 16008KT 120V190 CAVOK 20/12 Q1027 NOSIG RMK BLU
LHPA 070945Z 16008KT CAVOK 20/11 Q1028 NOSIG RMK BLU
TAF LHPA 071115Z 0712/0812 16008KT CAVOK 
     BECMG 0715/0718 14004KT 
     TEMPO 0722/0806 5000 BR MIFG BCFG NSC 
     PROB30 
     TEMPO 0800/0806 VRB02KT 0800 FG BKN003 
     BECMG 0806/0809 23003KT 
     TEMPO 0808/0812 9999 FEW020 BKN200
       
LHPP 071215Z AUTO 14003KT 080V240 CAVOK 20/11 Q1026
LHPP 071145Z AUTO 13003KT 080V230 CAVOK 20/11 Q1026
LHPP 071115Z AUTO 14004KT 080V200 CAVOK 19/10 Q1027
LHPP 071045Z AUTO 13005KT 050V190 CAVOK 19/10 Q1027
LHPP 071015Z AUTO 10004KT 050V180 CAVOK 19/10 Q1028
LHPP 070945Z AUTO 11006KT 070V140 CAVOK 18/10 Q1028
LHPP 070943Z AUTO 10005KT 070V130 CAVOK 18/10 Q1028
TAF LHPP 071115Z 0712/0721 10006KT CAVOK
       
LHPR 071215Z AUTO 13007KT 080V160 CAVOK 21/11 Q1026 NOSIG
LHPR 071145Z AUTO 14008KT 100V180 CAVOK 21/11 Q1026 NOSIG
LHPR 071115Z AUTO 15008KT 110V180 CAVOK 20/11 Q1027 NOSIG
LHPR 071045Z AUTO 14010KT 110V170 CAVOK 20/11 Q1027 NOSIG
LHPR 071015Z AUTO 14009KT 110V190 CAVOK 19/11 Q1028 NOSIG
LHPR 070945Z AUTO 14010KT CAVOK 19/11 Q1028 NOSIG
TAF LHPR 071115Z 0712/0721 14008KT CAVOK
       
LHSM 071215Z AUTO 15005KT 120V230 CAVOK 21/13 Q1026 NOSIG
LHSM 071145Z AUTO 16004KT 110V200 CAVOK 21/12 Q1026 NOSIG
LHSM 071115Z AUTO VRB03KT 9999 FEW030 20/13 Q1027 NOSIG
LHSM 071045Z AUTO 05004KT 360V140 9999 FEW027 19/13 Q1027 NOSIG
LHSM 071015Z AUTO VRB03KT 9999 FEW026 20/13 Q1028 NOSIG
LHSM 070945Z AUTO 16003KT 070V230 CAVOK 19/13 Q1028 NOSIG
TAF LHSM 071115Z 0712/0721 12006KT CAVOK 
     BECMG 0716/0719 VRB03KT 
     PROB30 
     TEMPO 0720/0721 5000 BR MIFG
       
LHSN 071215Z VRB02KT CAVOK 20/12 Q1026 NOSIG RMK BLU
LHSN 071145Z VRB02KT CAVOK 20/12 Q1026 NOSIG RMK BLU
LHSN 071115Z 08004KT 030V140 CAVOK 19/11 Q1027 NOSIG RMK BLU
LHSN 071045Z 10004KT 050V160 CAVOK 19/11 Q1027 NOSIG RMK BLU
LHSN 071015Z 07006KT 030V100 CAVOK 18/11 Q1028 NOSIG RMK BLU
LHSN 070945Z 09006KT 050V130 CAVOK 18/11 Q1028 NOSIG RMK BLU
TAF LHSN 071115Z 0712/0721 09007KT CAVOK 
     BECMG 0716/0718 15006KT